sensor_id;sensor_type;location;lat;lon;timestamp;pressure;altitude;pressure_sealevel;temperature;humidity
84522;BME280;74758;50.066;20.008;2024-01-10T00:00:28;101077.35;;;-12.20;60.45
84522;BME280;74758;50.066;20.008;2024-01-10T00:02:30;101078.77;;;-12.18;60.25
84522;BME280;74758;50.066;20.008;2024-01-10T00:04:32;101074.96;;;-12.15;60.45
84522;BME280;74758;50.066;20.008;2024-01-10T00:06:34;101076.06;;;-12.12;60.33
84522;BME280;74758;50.066;20.008;2024-01-10T00:08:36;101073.02;;;-12.11;60.00
84522;BME280;74758;50.066;20.008;2024-01-10T00:10:37;101076.08;;;-12.11;60.06
84522;BME280;74758;50.066;20.008;2024-01-10T00:12:40;101076.82;;;-12.09;59.89
84522;BME280;74758;50.066;20.008;2024-01-10T00:14:41;101077.19;;;-12.08;59.57
84522;BME280;74758;50.066;20.008;2024-01-10T00:16:43;101075.14;;;-12.09;59.69
84522;BME280;74758;50.066;20.008;2024-01-10T00:18:45;101075.65;;;-12.09;59.60
84522;BME280;74758;50.066;20.008;2024-01-10T00:20:47;101070.55;;;-12.09;59.78
84522;BME280;74758;50.066;20.008;2024-01-10T00:22:49;101066.81;;;-12.09;59.78
84522;BME280;74758;50.066;20.008;2024-01-10T00:24:51;101069.40;;;-12.08;59.84
84522;BME280;74758;50.066;20.008;2024-01-10T00:26:52;101071.11;;;-12.07;59.50
84522;BME280;74758;50.066;20.008;2024-01-10T00:28:54;101071.41;;;-12.09;59.25
84522;BME280;74758;50.066;20.008;2024-01-10T00:31:05;101071.84;;;-12.11;59.48
84522;BME280;74758;50.066;20.008;2024-01-10T00:33:07;101068.39;;;-12.13;59.42
84522;BME280;74758;50.066;20.008;2024-01-10T00:35:08;101066.33;;;-12.14;59.35
84522;BME280;74758;50.066;20.008;2024-01-10T00:37:10;101065.30;;;-12.14;59.14
84522;BME280;74758;50.066;20.008;2024-01-10T00:39:12;101067.86;;;-12.14;59.29
84522;BME280;74758;50.066;20.008;2024-01-10T00:41:13;101062.80;;;-12.13;59.61
84522;BME280;74758;50.066;20.008;2024-01-10T00:43:15;101061.33;;;-12.11;59.58
84522;BME280;74758;50.066;20.008;2024-01-10T00:45:17;101064.96;;;-12.09;59.79
84522;BME280;74758;50.066;20.008;2024-01-10T00:47:19;101065.90;;;-12.06;59.69
84522;BME280;74758;50.066;20.008;2024-01-10T00:49:20;101069.48;;;-12.05;59.34
84522;BME280;74758;50.066;20.008;2024-01-10T00:51:22;101072.90;;;-12.04;59.69
84522;BME280;74758;50.066;20.008;2024-01-10T00:53:24;101070.66;;;-12.00;59.73
84522;BME280;74758;50.066;20.008;2024-01-10T00:55:26;101072.91;;;-11.98;59.76
84522;BME280;74758;50.066;20.008;2024-01-10T00:57:27;101072.96;;;-11.96;59.55
84522;BME280;74758;50.066;20.008;2024-01-10T00:59:29;101073.34;;;-11.95;59.61
84522;BME280;74758;50.066;20.008;2024-01-10T01:01:31;101075.58;;;-11.94;59.99
84522;BME280;74758;50.066;20.008;2024-01-10T01:03:33;101073.69;;;-11.89;60.09
84522;BME280;74758;50.066;20.008;2024-01-10T01:05:34;101073.55;;;-11.89;60.00
84522;BME280;74758;50.066;20.008;2024-01-10T01:07:36;101070.29;;;-11.89;59.35
84522;BME280;74758;50.066;20.008;2024-01-10T01:09:38;101068.54;;;-11.97;58.84
84522;BME280;74758;50.066;20.008;2024-01-10T01:11:40;101065.50;;;-12.08;58.44
84522;BME280;74758;50.066;20.008;2024-01-10T01:13:42;101064.27;;;-12.21;58.50
84522;BME280;74758;50.066;20.008;2024-01-10T01:15:44;101067.49;;;-12.31;58.74
84522;BME280;74758;50.066;20.008;2024-01-10T01:17:46;101072.64;;;-12.40;58.45
84522;BME280;74758;50.066;20.008;2024-01-10T01:19:48;101073.65;;;-12.45;58.74
84522;BME280;74758;50.066;20.008;2024-01-10T01:21:50;101075.83;;;-12.46;58.91
84522;BME280;74758;50.066;20.008;2024-01-10T01:23:51;101075.22;;;-12.44;59.15
84522;BME280;74758;50.066;20.008;2024-01-10T01:25:53;101073.46;;;-12.40;59.32
84522;BME280;74758;50.066;20.008;2024-01-10T01:27:55;101068.73;;;-12.39;59.47
84522;BME280;74758;50.066;20.008;2024-01-10T01:29:57;101070.25;;;-12.40;59.24
84522;BME280;74758;50.066;20.008;2024-01-10T01:31:58;101068.27;;;-12.43;59.29
84522;BME280;74758;50.066;20.008;2024-01-10T01:34:00;101064.05;;;-12.49;59.73
84522;BME280;74758;50.066;20.008;2024-01-10T01:36:02;101061.51;;;-12.54;59.33
84522;BME280;74758;50.066;20.008;2024-01-10T01:38:04;101056.93;;;-12.60;59.48
84522;BME280;74758;50.066;20.008;2024-01-10T01:40:06;101057.37;;;-12.62;59.67
84522;BME280;74758;50.066;20.008;2024-01-10T01:42:08;101055.34;;;-12.62;60.46
84522;BME280;74758;50.066;20.008;2024-01-10T01:44:10;101051.34;;;-12.60;60.49
84522;BME280;74758;50.066;20.008;2024-01-10T01:46:12;101050.27;;;-12.56;60.47
84522;BME280;74758;50.066;20.008;2024-01-10T01:48:14;101043.15;;;-12.51;60.15
84522;BME280;74758;50.066;20.008;2024-01-10T01:50:16;101042.77;;;-12.47;60.12
84522;BME280;74758;50.066;20.008;2024-01-10T01:52:18;101039.15;;;-12.43;60.16
84522;BME280;74758;50.066;20.008;2024-01-10T01:54:19;101040.34;;;-12.43;59.61
84522;BME280;74758;50.066;20.008;2024-01-10T01:56:22;101044.30;;;-12.46;59.78
84522;BME280;74758;50.066;20.008;2024-01-10T01:58:25;101042.31;;;-12.51;59.78
84522;BME280;74758;50.066;20.008;2024-01-10T02:00:26;101050.25;;;-12.51;59.62
84522;BME280;74758;50.066;20.008;2024-01-10T02:02:30;101049.83;;;-12.49;60.05
84522;BME280;74758;50.066;20.008;2024-01-10T02:04:32;101051.14;;;-12.44;59.71
84522;BME280;74758;50.066;20.008;2024-01-10T02:06:35;101045.58;;;-12.44;59.38
84522;BME280;74758;50.066;20.008;2024-01-10T02:08:36;101043.77;;;-12.42;59.79
84522;BME280;74758;50.066;20.008;2024-01-10T02:10:38;101043.41;;;-12.37;59.58
84522;BME280;74758;50.066;20.008;2024-01-10T02:12:40;101047.74;;;-12.34;59.45
84522;BME280;74758;50.066;20.008;2024-01-10T02:14:42;101048.16;;;-12.32;59.70
84522;BME280;74758;50.066;20.008;2024-01-10T02:16:44;101046.50;;;-12.31;59.44
84522;BME280;74758;50.066;20.008;2024-01-10T02:18:46;101045.91;;;-12.34;59.04
84522;BME280;74758;50.066;20.008;2024-01-10T02:20:49;101041.30;;;-12.39;59.00
84522;BME280;74758;50.066;20.008;2024-01-10T02:22:51;101041.92;;;-12.47;59.20
84522;BME280;74758;50.066;20.008;2024-01-10T02:24:53;101038.85;;;-12.53;59.52
84522;BME280;74758;50.066;20.008;2024-01-10T02:26:55;101038.90;;;-12.57;59.67
84522;BME280;74758;50.066;20.008;2024-01-10T02:28:57;101033.51;;;-12.62;59.75
84522;BME280;74758;50.066;20.008;2024-01-10T02:30:59;101034.88;;;-12.66;60.15
84522;BME280;74758;50.066;20.008;2024-01-10T02:33:01;101033.89;;;-12.71;60.09
84522;BME280;74758;50.066;20.008;2024-01-10T02:35:04;101035.05;;;-12.71;60.06
84522;BME280;74758;50.066;20.008;2024-01-10T02:37:06;101033.38;;;-12.71;59.84
84522;BME280;74758;50.066;20.008;2024-01-10T02:39:08;101030.14;;;-12.71;59.74
84522;BME280;74758;50.066;20.008;2024-01-10T02:41:09;101028.77;;;-12.72;59.64
84522;BME280;74758;50.066;20.008;2024-01-10T02:43:11;101030.10;;;-12.73;59.81
84522;BME280;74758;50.066;20.008;2024-01-10T02:45:13;101024.64;;;-12.74;59.74
84522;BME280;74758;50.066;20.008;2024-01-10T02:47:15;101022.42;;;-12.75;60.06
84522;BME280;74758;50.066;20.008;2024-01-10T02:49:17;101023.04;;;-12.76;59.83
84522;BME280;74758;50.066;20.008;2024-01-10T02:51:20;101020.10;;;-12.78;59.71
84522;BME280;74758;50.066;20.008;2024-01-10T02:53:21;101010.88;;;-12.81;59.92
84522;BME280;74758;50.066;20.008;2024-01-10T02:55:23;101006.71;;;-12.85;59.77
84522;BME280;74758;50.066;20.008;2024-01-10T02:57:24;101006.38;;;-12.89;59.86
84522;BME280;74758;50.066;20.008;2024-01-10T02:59:26;101008.48;;;-12.93;60.13
84522;BME280;74758;50.066;20.008;2024-01-10T03:01:28;101003.73;;;-12.93;61.07
84522;BME280;74758;50.066;20.008;2024-01-10T03:03:30;101004.33;;;-12.90;61.05
84522;BME280;74758;50.066;20.008;2024-01-10T03:05:31;101001.03;;;-12.87;61.37
84522;BME280;74758;50.066;20.008;2024-01-10T03:07:33;101001.77;;;-12.86;61.34
84522;BME280;74758;50.066;20.008;2024-01-10T03:09:35;100995.55;;;-12.85;61.28
84522;BME280;74758;50.066;20.008;2024-01-10T03:11:36;100996.23;;;-12.84;61.06
84522;BME280;74758;50.066;20.008;2024-01-10T03:13:38;100998.26;;;-12.84;61.36
84522;BME280;74758;50.066;20.008;2024-01-10T03:15:40;100996.94;;;-12.83;61.54
84522;BME280;74758;50.066;20.008;2024-01-10T03:17:42;100992.21;;;-12.82;61.23
84522;BME280;74758;50.066;20.008;2024-01-10T03:19:44;100988.36;;;-12.81;61.24
84522;BME280;74758;50.066;20.008;2024-01-10T03:21:46;100988.16;;;-12.77;61.31
84522;BME280;74758;50.066;20.008;2024-01-10T03:23:47;100983.78;;;-12.71;61.22
84522;BME280;74758;50.066;20.008;2024-01-10T03:25:49;100987.34;;;-12.65;60.98
84522;BME280;74758;50.066;20.008;2024-01-10T03:27:51;100989.47;;;-12.62;61.02
84522;BME280;74758;50.066;20.008;2024-01-10T03:29:52;100989.20;;;-12.60;60.77
84522;BME280;74758;50.066;20.008;2024-01-10T03:31:54;100990.20;;;-12.55;60.75
84522;BME280;74758;50.066;20.008;2024-01-10T03:33:56;100989.50;;;-12.50;60.74
84522;BME280;74758;50.066;20.008;2024-01-10T03:36:00;100991.96;;;-12.41;61.19
84522;BME280;74758;50.066;20.008;2024-01-10T03:38:01;100986.16;;;-12.37;60.76
84522;BME280;74758;50.066;20.008;2024-01-10T03:40:03;100989.73;;;-12.36;60.18
84522;BME280;74758;50.066;20.008;2024-01-10T03:42:05;100989.19;;;-12.37;60.02
84522;BME280;74758;50.066;20.008;2024-01-10T03:44:06;100987.89;;;-12.41;59.79
84522;BME280;74758;50.066;20.008;2024-01-10T03:46:12;100985.59;;;-12.44;59.50
84522;BME280;74758;50.066;20.008;2024-01-10T03:48:14;100986.65;;;-12.49;59.78
84522;BME280;74758;50.066;20.008;2024-01-10T03:50:19;100986.34;;;-12.54;59.46
84522;BME280;74758;50.066;20.008;2024-01-10T03:52:21;100981.17;;;-12.62;59.38
84522;BME280;74758;50.066;20.008;2024-01-10T03:54:23;100981.30;;;-12.69;59.11
84522;BME280;74758;50.066;20.008;2024-01-10T03:56:24;100982.64;;;-12.75;59.66
84522;BME280;74758;50.066;20.008;2024-01-10T03:58:26;100980.11;;;-12.80;60.06
84522;BME280;74758;50.066;20.008;2024-01-10T04:00:27;100977.11;;;-12.84;59.81
84522;BME280;74758;50.066;20.008;2024-01-10T04:02:29;100980.95;;;-12.86;60.28
84522;BME280;74758;50.066;20.008;2024-01-10T04:04:31;100978.92;;;-12.85;60.54
84522;BME280;74758;50.066;20.008;2024-01-10T04:06:32;100976.23;;;-12.84;60.64
84522;BME280;74758;50.066;20.008;2024-01-10T04:08:35;100971.19;;;-12.84;60.40
84522;BME280;74758;50.066;20.008;2024-01-10T04:10:37;100972.55;;;-12.83;60.58
84522;BME280;74758;50.066;20.008;2024-01-10T04:12:42;100972.33;;;-12.80;60.51
84522;BME280;74758;50.066;20.008;2024-01-10T04:14:44;100974.08;;;-12.72;60.79
84522;BME280;74758;50.066;20.008;2024-01-10T04:16:46;100975.73;;;-12.68;60.25
84522;BME280;74758;50.066;20.008;2024-01-10T04:18:47;100975.39;;;-12.68;59.78
84522;BME280;74758;50.066;20.008;2024-01-10T04:20:49;100977.27;;;-12.68;59.52
84522;BME280;74758;50.066;20.008;2024-01-10T04:22:51;100973.79;;;-12.70;59.21
84522;BME280;74758;50.066;20.008;2024-01-10T04:24:53;100974.52;;;-12.69;59.96
84522;BME280;74758;50.066;20.008;2024-01-10T04:26:55;100979.73;;;-12.65;59.79
84522;BME280;74758;50.066;20.008;2024-01-10T04:28:57;100974.25;;;-12.61;59.99
84522;BME280;74758;50.066;20.008;2024-01-10T04:30:58;100975.46;;;-12.60;59.58
84522;BME280;74758;50.066;20.008;2024-01-10T04:33:00;100976.15;;;-12.60;59.48
84522;BME280;74758;50.066;20.008;2024-01-10T04:35:02;100977.67;;;-12.60;58.99
84522;BME280;74758;50.066;20.008;2024-01-10T04:37:05;100974.51;;;-12.64;58.91
84522;BME280;74758;50.066;20.008;2024-01-10T04:39:08;100971.54;;;-12.61;59.43
84522;BME280;74758;50.066;20.008;2024-01-10T04:41:10;100972.10;;;-12.54;59.48
84522;BME280;74758;50.066;20.008;2024-01-10T04:43:12;100977.42;;;-12.52;59.39
84522;BME280;74758;50.066;20.008;2024-01-10T04:45:13;100979.37;;;-12.49;59.51
84522;BME280;74758;50.066;20.008;2024-01-10T04:47:16;100980.09;;;-12.47;59.47
84522;BME280;74758;50.066;20.008;2024-01-10T04:49:18;100974.17;;;-12.46;59.12
84522;BME280;74758;50.066;20.008;2024-01-10T04:51:20;100972.27;;;-12.42;59.10
84522;BME280;74758;50.066;20.008;2024-01-10T04:53:21;100968.14;;;-12.39;59.12
84522;BME280;74758;50.066;20.008;2024-01-10T04:55:24;100969.63;;;-12.46;58.90
84522;BME280;74758;50.066;20.008;2024-01-10T04:57:26;100972.24;;;-12.49;59.41
84522;BME280;74758;50.066;20.008;2024-01-10T04:59:27;100974.20;;;-12.57;59.66
84522;BME280;74758;50.066;20.008;2024-01-10T05:01:29;100972.64;;;-12.69;60.26
84522;BME280;74758;50.066;20.008;2024-01-10T05:03:31;100975.62;;;-12.77;60.25
84522;BME280;74758;50.066;20.008;2024-01-10T05:05:33;100982.67;;;-12.78;60.00
84522;BME280;74758;50.066;20.008;2024-01-10T05:07:35;100990.65;;;-12.78;59.96
84522;BME280;74758;50.066;20.008;2024-01-10T05:09:36;100993.54;;;-12.72;60.22
84522;BME280;74758;50.066;20.008;2024-01-10T05:11:38;100987.63;;;-12.66;60.02
84522;BME280;74758;50.066;20.008;2024-01-10T05:13:43;100988.15;;;-12.60;59.68
84522;BME280;74758;50.066;20.008;2024-01-10T05:15:44;100988.92;;;-12.52;59.69
84522;BME280;74758;50.066;20.008;2024-01-10T05:17:46;100987.39;;;-12.46;59.66
84522;BME280;74758;50.066;20.008;2024-01-10T05:19:48;100989.32;;;-12.44;59.78
84522;BME280;74758;50.066;20.008;2024-01-10T05:21:50;100991.80;;;-12.46;59.34
84522;BME280;74758;50.066;20.008;2024-01-10T05:23:51;100991.35;;;-12.44;59.39
84522;BME280;74758;50.066;20.008;2024-01-10T05:25:53;100992.73;;;-12.43;59.34
84522;BME280;74758;50.066;20.008;2024-01-10T05:27:55;100995.08;;;-12.44;59.39
84522;BME280;74758;50.066;20.008;2024-01-10T05:29:57;100999.13;;;-12.45;58.95
84522;BME280;74758;50.066;20.008;2024-01-10T05:32:01;100999.70;;;-12.48;59.05
84522;BME280;74758;50.066;20.008;2024-01-10T05:34:03;101001.69;;;-12.55;58.86
84522;BME280;74758;50.066;20.008;2024-01-10T05:36:07;101002.02;;;-12.61;58.80
84522;BME280;74758;50.066;20.008;2024-01-10T05:38:09;100994.31;;;-12.64;58.92
84522;BME280;74758;50.066;20.008;2024-01-10T05:40:10;100994.81;;;-12.64;59.43
84522;BME280;74758;50.066;20.008;2024-01-10T05:42:12;100991.05;;;-12.66;59.27
84522;BME280;74758;50.066;20.008;2024-01-10T05:44:14;100995.96;;;-12.71;59.49
84522;BME280;74758;50.066;20.008;2024-01-10T05:46:16;100998.52;;;-12.75;59.86
84522;BME280;74758;50.066;20.008;2024-01-10T05:48:18;100999.86;;;-12.82;59.78
84522;BME280;74758;50.066;20.008;2024-01-10T05:50:20;100995.97;;;-12.82;59.89
84522;BME280;74758;50.066;20.008;2024-01-10T05:52:22;100990.40;;;-12.81;59.99
84522;BME280;74758;50.066;20.008;2024-01-10T05:54:24;100993.24;;;-12.82;59.80
84522;BME280;74758;50.066;20.008;2024-01-10T05:56:26;100993.02;;;-12.84;59.79
84522;BME280;74758;50.066;20.008;2024-01-10T05:58:29;100996.40;;;-12.84;60.02
84522;BME280;74758;50.066;20.008;2024-01-10T06:00:31;100992.36;;;-12.83;59.97
84522;BME280;74758;50.066;20.008;2024-01-10T06:02:33;100989.14;;;-12.83;59.63
84522;BME280;74758;50.066;20.008;2024-01-10T06:04:35;100994.93;;;-12.82;59.99
84522;BME280;74758;50.066;20.008;2024-01-10T06:06:37;100997.77;;;-12.84;59.56
84522;BME280;74758;50.066;20.008;2024-01-10T06:08:39;101000.83;;;-12.83;59.51
84522;BME280;74758;50.066;20.008;2024-01-10T06:10:41;100997.63;;;-12.82;59.68
84522;BME280;74758;50.066;20.008;2024-01-10T06:12:42;100998.04;;;-12.80;59.76
84522;BME280;74758;50.066;20.008;2024-01-10T06:14:44;101001.95;;;-12.79;59.54
84522;BME280;74758;50.066;20.008;2024-01-10T06:16:46;101002.73;;;-12.82;59.38
84522;BME280;74758;50.066;20.008;2024-01-10T06:18:48;101007.35;;;-12.86;59.35
84522;BME280;74758;50.066;20.008;2024-01-10T06:20:50;101005.09;;;-12.88;59.29
84522;BME280;74758;50.066;20.008;2024-01-10T06:22:52;101004.60;;;-12.87;59.59
84522;BME280;74758;50.066;20.008;2024-01-10T06:24:54;101008.05;;;-12.85;59.70
84522;BME280;74758;50.066;20.008;2024-01-10T06:26:55;101009.55;;;-12.86;59.32
84522;BME280;74758;50.066;20.008;2024-01-10T06:28:57;101008.45;;;-12.83;59.93
84522;BME280;74758;50.066;20.008;2024-01-10T06:30:59;101004.23;;;-12.77;59.63
84522;BME280;74758;50.066;20.008;2024-01-10T06:33:01;101003.73;;;-12.71;59.45
84522;BME280;74758;50.066;20.008;2024-01-10T06:35:03;101004.33;;;-12.68;59.78
84522;BME280;74758;50.066;20.008;2024-01-10T06:37:06;101004.27;;;-12.65;59.75
84522;BME280;74758;50.066;20.008;2024-01-10T06:39:11;101001.02;;;-12.66;59.77
84522;BME280;74758;50.066;20.008;2024-01-10T06:41:17;101002.77;;;-12.70;59.55
84522;BME280;74758;50.066;20.008;2024-01-10T06:43:19;101001.30;;;-12.73;59.23
84522;BME280;74758;50.066;20.008;2024-01-10T06:45:20;100997.77;;;-12.78;59.02
84522;BME280;74758;50.066;20.008;2024-01-10T06:47:22;101003.71;;;-12.83;59.46
84522;BME280;74758;50.066;20.008;2024-01-10T06:49:24;100999.05;;;-12.86;59.78
84522;BME280;74758;50.066;20.008;2024-01-10T06:51:26;100991.86;;;-12.88;59.87
84522;BME280;74758;50.066;20.008;2024-01-10T06:53:31;100991.62;;;-12.91;60.02
84522;BME280;74758;50.066;20.008;2024-01-10T06:55:33;100992.08;;;-12.92;60.17
84522;BME280;74758;50.066;20.008;2024-01-10T06:57:35;100995.46;;;-12.92;60.20
84522;BME280;74758;50.066;20.008;2024-01-10T06:59:36;100997.08;;;-12.89;60.51
84522;BME280;74758;50.066;20.008;2024-01-10T07:01:38;100991.85;;;-12.84;60.82
84522;BME280;74758;50.066;20.008;2024-01-10T07:03:41;100986.55;;;-12.80;60.76
84522;BME280;74758;50.066;20.008;2024-01-10T07:05:43;100987.84;;;-12.76;60.91
84522;BME280;74758;50.066;20.008;2024-01-10T07:07:46;100989.80;;;-12.73;60.74
84522;BME280;74758;50.066;20.008;2024-01-10T07:09:48;100989.21;;;-12.70;61.03
84522;BME280;74758;50.066;20.008;2024-01-10T07:11:49;100990.20;;;-12.65;61.16
84522;BME280;74758;50.066;20.008;2024-01-10T07:13:51;100994.73;;;-12.61;60.96
84522;BME280;74758;50.066;20.008;2024-01-10T07:15:53;100991.00;;;-12.56;61.14
84522;BME280;74758;50.066;20.008;2024-01-10T07:17:55;100993.89;;;-12.50;60.83
84522;BME280;74758;50.066;20.008;2024-01-10T07:19:57;100994.15;;;-12.41;61.24
84522;BME280;74758;50.066;20.008;2024-01-10T07:21:58;100993.00;;;-12.30;61.18
84522;BME280;74758;50.066;20.008;2024-01-10T07:24:00;100994.45;;;-12.21;60.73
84522;BME280;74758;50.066;20.008;2024-01-10T07:26:02;101003.13;;;-12.14;60.92
84522;BME280;74758;50.066;20.008;2024-01-10T07:28:04;101001.95;;;-12.08;60.76
84522;BME280;74758;50.066;20.008;2024-01-10T07:30:07;101002.69;;;-11.99;61.10
84522;BME280;74758;50.066;20.008;2024-01-10T07:32:17;101002.51;;;-11.88;60.86
84522;BME280;74758;50.066;20.008;2024-01-10T07:34:21;101007.16;;;-11.79;60.70
84522;BME280;74758;50.066;20.008;2024-01-10T07:36:26;101003.20;;;-11.69;60.85
84522;BME280;74758;50.066;20.008;2024-01-10T07:38:28;101004.38;;;-11.57;60.74
84522;BME280;74758;50.066;20.008;2024-01-10T07:40:30;100995.05;;;-11.44;60.59
84522;BME280;74758;50.066;20.008;2024-01-10T07:42:33;100989.01;;;-10.95;60.01
84522;BME280;74758;50.066;20.008;2024-01-10T07:44:35;100995.73;;;-10.46;59.59
84522;BME280;74758;50.066;20.008;2024-01-10T07:46:36;100999.16;;;-10.45;59.33
84522;BME280;74758;50.066;20.008;2024-01-10T07:48:39;100996.00;;;-10.43;59.11
84522;BME280;74758;50.066;20.008;2024-01-10T07:50:41;100995.16;;;-10.36;58.98
84522;BME280;74758;50.066;20.008;2024-01-10T07:52:43;100992.05;;;-9.96;58.55
84522;BME280;74758;50.066;20.008;2024-01-10T07:54:45;100990.98;;;-9.00;57.37
84522;BME280;74758;50.066;20.008;2024-01-10T07:56:47;100992.16;;;-8.09;56.42
84522;BME280;74758;50.066;20.008;2024-01-10T07:58:48;100986.89;;;-7.35;55.35
84522;BME280;74758;50.066;20.008;2024-01-10T08:00:50;100980.98;;;-6.71;54.18
84522;BME280;74758;50.066;20.008;2024-01-10T08:02:53;100976.65;;;-6.31;53.12
84522;BME280;74758;50.066;20.008;2024-01-10T08:04:55;100975.55;;;-6.13;52.16
84522;BME280;74758;50.066;20.008;2024-01-10T08:06:57;100977.08;;;-6.17;51.19
84522;BME280;74758;50.066;20.008;2024-01-10T08:08:59;100978.70;;;-6.33;51.13
84522;BME280;74758;50.066;20.008;2024-01-10T08:11:00;100981.68;;;-6.19;50.96
84522;BME280;74758;50.066;20.008;2024-01-10T08:13:02;100984.22;;;-5.86;50.46
84522;BME280;74758;50.066;20.008;2024-01-10T08:15:04;100982.05;;;-5.71;49.60
84522;BME280;74758;50.066;20.008;2024-01-10T08:17:07;100982.98;;;-5.49;48.86
84522;BME280;74758;50.066;20.008;2024-01-10T08:19:09;100984.91;;;-5.29;48.36
84522;BME280;74758;50.066;20.008;2024-01-10T08:21:11;100983.08;;;-5.15;48.40
84522;BME280;74758;50.066;20.008;2024-01-10T08:23:13;100983.71;;;-5.29;48.36
84522;BME280;74758;50.066;20.008;2024-01-10T08:25:15;100987.75;;;-5.57;48.14
84522;BME280;74758;50.066;20.008;2024-01-10T08:27:17;100992.96;;;-5.88;48.09
84522;BME280;74758;50.066;20.008;2024-01-10T08:29:19;100993.14;;;-5.84;48.39
84522;BME280;74758;50.066;20.008;2024-01-10T08:31:22;100990.39;;;-5.86;48.32
84522;BME280;74758;50.066;20.008;2024-01-10T08:33:25;100987.92;;;-6.03;48.77
84522;BME280;74758;50.066;20.008;2024-01-10T08:35:26;100985.42;;;-6.23;48.80
84522;BME280;74758;50.066;20.008;2024-01-10T08:37:29;100988.73;;;-6.44;48.85
84522;BME280;74758;50.066;20.008;2024-01-10T08:39:31;100992.13;;;-6.67;48.49
84522;BME280;74758;50.066;20.008;2024-01-10T08:41:32;100986.58;;;-6.98;48.55
84522;BME280;74758;50.066;20.008;2024-01-10T08:43:35;100986.31;;;-7.10;49.09
84522;BME280;74758;50.066;20.008;2024-01-10T08:45:36;100984.43;;;-7.24;49.09
84522;BME280;74758;50.066;20.008;2024-01-10T08:47:38;100986.42;;;-7.14;49.18
84522;BME280;74758;50.066;20.008;2024-01-10T08:49:40;100976.14;;;-6.99;49.23
84522;BME280;74758;50.066;20.008;2024-01-10T08:51:41;100978.77;;;-6.92;49.29
84522;BME280;74758;50.066;20.008;2024-01-10T08:53:45;100981.27;;;-6.55;49.23
84522;BME280;74758;50.066;20.008;2024-01-10T08:55:48;100981.20;;;-6.12;49.10
84522;BME280;74758;50.066;20.008;2024-01-10T08:57:50;100977.67;;;-5.98;49.08
84522;BME280;74758;50.066;20.008;2024-01-10T08:59:51;100979.80;;;-5.77;48.74
84522;BME280;74758;50.066;20.008;2024-01-10T09:01:53;100975.58;;;-5.62;48.56
84522;BME280;74758;50.066;20.008;2024-01-10T09:03:55;100974.93;;;-5.46;48.06
84522;BME280;74758;50.066;20.008;2024-01-10T09:05:57;100974.83;;;-5.21;48.43
84522;BME280;74758;50.066;20.008;2024-01-10T09:08:10;100972.45;;;-5.03;48.10
84522;BME280;74758;50.066;20.008;2024-01-10T09:10:13;100973.98;;;-4.53;47.61
84522;BME280;74758;50.066;20.008;2024-01-10T09:12:15;100973.23;;;-4.11;47.04
84522;BME280;74758;50.066;20.008;2024-01-10T09:14:17;100963.10;;;-3.65;46.53
84522;BME280;74758;50.066;20.008;2024-01-10T09:16:19;100964.05;;;-3.21;45.92
84522;BME280;74758;50.066;20.008;2024-01-10T09:18:21;100964.40;;;-2.75;45.47
84522;BME280;74758;50.066;20.008;2024-01-10T09:20:23;100963.55;;;-2.38;45.19
84522;BME280;74758;50.066;20.008;2024-01-10T09:22:25;100962.71;;;-2.08;44.44
84522;BME280;74758;50.066;20.008;2024-01-10T09:24:27;100958.98;;;-1.97;44.01
84522;BME280;74758;50.066;20.008;2024-01-10T09:26:30;100957.72;;;-1.77;43.30
84522;BME280;74758;50.066;20.008;2024-01-10T09:28:32;100956.11;;;-1.73;42.87
84522;BME280;74758;50.066;20.008;2024-01-10T09:30:34;100950.86;;;-1.54;42.71
84522;BME280;74758;50.066;20.008;2024-01-10T09:32:37;100947.04;;;-1.27;42.05
84522;BME280;74758;50.066;20.008;2024-01-10T09:34:39;100947.32;;;-1.11;41.74
84522;BME280;74758;50.066;20.008;2024-01-10T09:36:41;100941.04;;;-0.96;41.48
84522;BME280;74758;50.066;20.008;2024-01-10T09:38:43;100938.64;;;-0.77;41.16
84522;BME280;74758;50.066;20.008;2024-01-10T09:40:45;100931.23;;;-0.67;40.97
84522;BME280;74758;50.066;20.008;2024-01-10T09:42:50;100925.28;;;-0.61;40.55
84522;BME280;74758;50.066;20.008;2024-01-10T09:44:52;100924.05;;;-0.51;40.65
84522;BME280;74758;50.066;20.008;2024-01-10T09:46:54;100925.63;;;-0.33;40.62
84522;BME280;74758;50.066;20.008;2024-01-10T09:48:57;100918.11;;;-0.02;40.80
84522;BME280;74758;50.066;20.008;2024-01-10T09:51:02;100917.13;;;0.29;40.39
84522;BME280;74758;50.066;20.008;2024-01-10T09:53:13;100915.98;;;0.49;40.07
84522;BME280;74758;50.066;20.008;2024-01-10T09:55:21;100913.73;;;0.65;39.95
84522;BME280;74758;50.066;20.008;2024-01-10T09:57:26;100913.42;;;0.85;39.93
84522;BME280;74758;50.066;20.008;2024-01-10T09:59:28;100910.54;;;1.05;39.38
84522;BME280;74758;50.066;20.008;2024-01-10T10:01:30;100905.30;;;1.13;38.81
84522;BME280;74758;50.066;20.008;2024-01-10T10:03:36;100901.73;;;1.17;38.61
84522;BME280;74758;50.066;20.008;2024-01-10T10:05:39;100901.42;;;1.16;38.70
84522;BME280;74758;50.066;20.008;2024-01-10T10:07:49;100900.27;;;1.20;38.78
84522;BME280;74758;50.066;20.008;2024-01-10T10:09:51;100896.54;;;1.31;38.79
84522;BME280;74758;50.066;20.008;2024-01-10T10:11:55;100898.53;;;1.48;38.57
84522;BME280;74758;50.066;20.008;2024-01-10T10:13:56;100896.52;;;1.59;38.46
84522;BME280;74758;50.066;20.008;2024-01-10T10:16:02;100892.13;;;1.73;38.18
84522;BME280;74758;50.066;20.008;2024-01-10T10:18:04;100894.30;;;1.82;37.76
84522;BME280;74758;50.066;20.008;2024-01-10T10:20:06;100887.52;;;1.70;37.36
84522;BME280;74758;50.066;20.008;2024-01-10T10:22:09;100886.17;;;1.63;37.25
84522;BME280;74758;50.066;20.008;2024-01-10T10:24:11;100887.48;;;1.53;37.32